createdAt,value
2022-09-23T00:01:09.639Z,99797.44
2022-09-23T00:03:38.866Z,99799.84
2022-09-23T00:06:08.543Z,99803.84
2022-09-23T00:08:35.210Z,99798.50
2022-09-23T00:11:10.551Z,99802.59
2022-09-23T00:13:39.179Z,99802.47
2022-09-23T00:16:08.092Z,99811.22
2022-09-23T00:18:34.648Z,99805.47
2022-09-23T00:21:10.872Z,99814.09
2022-09-23T00:23:38.488Z,99811.75
2022-09-23T00:26:07.619Z,99821.53
2022-09-23T00:28:35.154Z,99813.06
2022-09-23T00:31:06.924Z,99817.84
2022-09-23T00:33:33.531Z,99813.56
2022-09-23T00:36:01.930Z,99813.00
2022-09-23T00:38:28.578Z,99810.31
2022-09-23T00:40:55.198Z,99802.75
2022-09-23T00:43:40.932Z,99803.53
2022-09-23T00:46:14.286Z,99803.19
2022-09-23T00:48:43.956Z,99806.97
2022-09-23T00:51:17.883Z,99804.97
2022-09-23T00:53:47.004Z,99797.34
2022-09-23T00:56:14.326Z,99795.69
2022-09-23T00:58:43.287Z,99793.41
2022-09-23T01:01:11.943Z,99783.25
2022-09-23T01:03:38.534Z,99783.25
2022-09-23T01:06:05.624Z,99786.00
2022-09-23T01:08:32.292Z,99785.53
2022-09-23T01:11:10.120Z,99790.41
2022-09-23T01:13:36.646Z,99788.66
2022-09-23T01:16:31.410Z,99782.69
2022-09-23T01:19:32.234Z,99783.84
2022-09-23T01:22:05.424Z,99779.19
2022-09-23T01:24:46.094Z,99782.41
2022-09-23T01:27:41.560Z,99774.34
2022-09-23T01:30:11.836Z,99779.47
2022-09-23T01:33:01.379Z,99781.22
2022-09-23T01:35:37.725Z,99776.56
2022-09-23T01:38:13.070Z,99774.16
2022-09-23T01:41:09.900Z,99766.13
2022-09-23T01:43:58.063Z,99775.94
2022-09-23T01:46:29.810Z,99774.66
2022-09-23T01:49:22.116Z,99777.19
2022-09-23T01:52:01.534Z,99776.09
2022-09-23T01:54:42.313Z,99774.97
2022-09-23T01:57:18.872Z,99774.97
2022-09-23T01:59:55.856Z,99770.41
2022-09-23T02:02:35.450Z,99768.59
2022-09-23T02:05:18.330Z,99773.44
2022-09-23T02:07:58.021Z,99776.81
2022-09-23T02:10:31.041Z,99777.31
2022-09-23T02:13:05.479Z,99772.97
2022-09-23T02:15:36.899Z,99765.75
2022-09-23T02:18:17.911Z,99765.75
2022-09-23T02:20:44.976Z,99760.38
2022-09-23T02:23:23.426Z,99757.44
2022-09-23T02:26:08.824Z,99757.13
2022-09-23T02:29:08.348Z,99756.44
2022-09-23T02:31:45.769Z,99765.75
2022-09-23T02:34:42.560Z,99760.41
2022-09-23T02:37:37.178Z,99751.06
2022-09-23T02:40:26.289Z,99760.06
2022-09-23T02:43:19.789Z,99765.53
2022-09-23T02:45:47.439Z,99761.22
2022-09-23T02:48:18.724Z,99751.31
2022-09-23T02:50:47.760Z,99747.78
2022-09-23T02:53:16.174Z,99750.50
2022-09-23T02:55:43.526Z,99749.44
2022-09-23T02:58:13.840Z,99740.88
2022-09-23T03:00:59.032Z,99740.66
2022-09-23T03:03:45.148Z,99743.09
2022-09-23T03:06:39.782Z,99739.16
2022-09-23T03:09:13.272Z,99745.91
2022-09-23T03:11:48.158Z,99744.28
2022-09-23T03:14:25.592Z,99735.69
2022-09-23T03:16:52.107Z,99731.69
2022-09-23T03:19:23.545Z,99744.09
2022-09-23T03:22:08.160Z,99731.88
2022-09-23T03:24:38.135Z,99735.13
2022-09-23T03:27:13.706Z,99738.75
2022-09-23T03:29:45.609Z,99730.19
2022-09-23T03:32:14.612Z,99731.00
2022-09-23T03:34:43.859Z,99737.94
2022-09-23T03:37:19.868Z,99732.19
2022-09-23T03:40:15.003Z,99732.53
2022-09-23T03:42:42.324Z,99724.97
2022-09-23T03:45:14.623Z,99730.44
2022-09-23T03:47:42.280Z,99718.00
2022-09-23T03:50:09.283Z,99717.03
2022-09-23T03:52:35.818Z,99712.03
2022-09-23T03:55:02.408Z,99716.69
2022-09-23T03:57:28.944Z,99711.88
2022-09-23T03:59:55.509Z,99715.63
2022-09-23T04:02:22.128Z,99716.63
2022-09-23T04:04:48.844Z,99723.56
2022-09-23T04:07:15.663Z,99719.75
2022-09-23T04:09:42.299Z,99717.19
2022-09-23T04:12:13.435Z,99724.47
2022-09-23T04:14:40.062Z,99718.84
2022-09-23T04:17:06.620Z,99714.50
2022-09-23T04:19:33.177Z,99716.13
2022-09-23T04:21:59.874Z,99714.50
2022-09-23T04:24:26.554Z,99718.50
2022-09-23T04:26:55.257Z,99716.78
2022-09-23T04:29:22.583Z,99713.88
2022-09-23T04:31:50.046Z,99710.09
2022-09-23T04:34:17.698Z,99721.69
2022-09-23T04:36:45.332Z,99715.78
2022-09-23T04:39:12.566Z,99711.31
2022-09-23T04:41:39.084Z,99715.81
2022-09-23T04:44:05.651Z,99713.41
2022-09-23T04:46:32.407Z,99703.75
2022-09-23T04:48:58.995Z,99718.56
2022-09-23T04:51:26.940Z,99725.47
2022-09-23T04:53:55.052Z,99728.66
2022-09-23T04:56:26.821Z,99728.19
2022-09-23T04:58:54.263Z,99725.47
2022-09-23T05:01:27.118Z,99729.81
2022-09-23T05:04:01.556Z,99725.81
2022-09-23T05:06:29.697Z,99731.22
2022-09-23T05:08:58.278Z,99727.25
2022-09-23T05:11:25.750Z,99726.41
2022-09-23T05:13:54.093Z,99729.91
2022-09-23T05:16:25.615Z,99723.84
2022-09-23T05:18:52.718Z,99730.66
2022-09-23T05:21:21.845Z,99732.34
2022-09-23T05:23:58.799Z,99724.97
2022-09-23T05:26:28.117Z,99728.69
2022-09-23T05:28:55.178Z,99727.59
2022-09-23T05:31:24.665Z,99731.31
2022-09-23T05:33:53.494Z,99729.91
2022-09-23T05:36:22.093Z,99730.75
2022-09-23T05:38:50.065Z,99729.72
2022-09-23T05:41:17.794Z,99717.63
2022-09-23T05:43:44.743Z,99731.44
2022-09-23T05:46:23.372Z,99728.00
2022-09-23T05:48:50.436Z,99728.81
2022-09-23T05:51:20.080Z,99732.78
2022-09-23T05:53:47.856Z,99731.63
2022-09-23T05:56:16.708Z,99739.97
2022-09-23T05:58:44.103Z,99732.28
2022-09-23T06:01:12.869Z,99732.69
2022-09-23T06:03:40.030Z,99735.38
2022-09-23T06:06:11.964Z,99735.69
2022-09-23T06:08:38.876Z,99733.72
2022-09-23T06:11:07.667Z,99731.69
2022-09-23T06:13:39.005Z,99735.69
2022-09-23T06:16:08.040Z,99739.00
2022-09-23T06:18:35.541Z,99742.94
2022-09-23T06:21:03.779Z,99754.56
2022-09-23T06:23:31.306Z,99755.38
2022-09-23T06:26:02.475Z,99759.91
2022-09-23T06:28:33.863Z,99760.38
2022-09-23T06:31:03.247Z,99754.22
2022-09-23T06:33:36.812Z,99764.44
2022-09-23T06:36:06.347Z,99767.63
2022-09-23T06:38:36.262Z,99768.72
2022-09-23T06:41:03.485Z,99773.84
2022-09-23T06:43:30.880Z,99776.38
2022-09-23T06:46:00.003Z,99774.84
2022-09-23T06:48:27.816Z,99778.59
2022-09-23T06:50:58.402Z,99771.47
2022-09-23T06:53:25.545Z,99771.66
2022-09-23T06:56:03.768Z,99775.28
2022-09-23T06:58:31.952Z,99772.78
2022-09-23T07:01:03.131Z,99778.09
2022-09-23T07:03:29.842Z,99775.09
2022-09-23T07:05:56.609Z,99765.97
2022-09-23T07:08:24.883Z,99759.63
2022-09-23T07:10:53.067Z,99770.44
2022-09-23T07:13:19.650Z,99762.44
2022-09-23T07:15:53.796Z,99770.91
2022-09-23T07:18:23.829Z,99772.63
2022-09-23T07:20:50.935Z,99765.66
2022-09-23T07:23:17.948Z,99769.56
2022-09-23T07:25:46.768Z,99775.25
2022-09-23T07:28:13.692Z,99777.41
2022-09-23T07:30:49.172Z,99775.59
2022-09-23T07:33:30.830Z,99778.75
2022-09-23T07:35:58.582Z,99779.50
2022-09-23T07:38:30.366Z,99777.28
2022-09-23T07:41:11.134Z,99784.13
2022-09-23T07:43:37.875Z,99779.81
2022-09-23T07:46:08.728Z,99777.25
2022-09-23T07:48:36.345Z,99771.97
2022-09-23T07:51:29.060Z,99778.50
2022-09-23T07:53:59.109Z,99782.69
2022-09-23T07:56:28.006Z,99784.31
2022-09-23T07:59:00.805Z,99781.03
2022-09-23T08:01:48.706Z,99783.25
2022-09-23T08:04:17.862Z,99781.06
2022-09-23T08:06:47.533Z,99787.94
2022-09-23T08:09:16.460Z,99787.47
2022-09-23T08:11:42.978Z,99786.91
2022-09-23T08:14:12.691Z,99784.06
2022-09-23T08:16:40.154Z,99786.84
2022-09-23T08:19:08.037Z,99786.94
2022-09-23T08:21:35.256Z,99784.50
2022-09-23T08:24:02.112Z,99779.03
2022-09-23T08:26:28.839Z,99784.97
2022-09-23T08:28:56.498Z,99783.09
2022-09-23T08:31:23.684Z,99779.34
2022-09-23T08:33:58.123Z,99774.84
2022-09-23T08:36:25.810Z,99778.66
2022-09-23T08:38:52.590Z,99772.72
2022-09-23T08:41:37.732Z,99767.31
2022-09-23T08:44:27.222Z,99774.88
2022-09-23T08:47:04.953Z,99768.69
2022-09-23T08:49:36.792Z,99766.34
2022-09-23T08:52:40.275Z,99763.63
2022-09-23T08:55:12.843Z,99758.50
2022-09-23T08:57:57.510Z,99751.34
2022-09-23T09:00:42.099Z,99759.22
2022-09-23T09:03:21.335Z,99766.41
2022-09-23T09:05:54.226Z,99758.94
2022-09-23T09:08:31.338Z,99747.00
2022-09-23T09:10:58.362Z,99746.22
2022-09-23T09:13:43.252Z,99752.56
2022-09-23T09:16:59.065Z,99748.19
2022-09-23T09:19:52.573Z,99750.59
2022-09-23T09:25:39.847Z,99749.00
2022-09-23T09:28:15.954Z,99746.50
2022-09-23T09:30:48.341Z,99735.69
2022-09-23T09:33:18.942Z,99732.38
2022-09-23T09:35:45.862Z,99736.16
2022-09-23T09:38:13.088Z,99728.13
2022-09-23T09:40:46.204Z,99724.63
2022-09-23T09:43:26.048Z,99711.75
2022-09-23T09:46:36.382Z,99710.28
2022-09-23T09:49:11.878Z,99709.16
2022-09-23T09:51:42.627Z,99702.84
2022-09-23T09:54:27.365Z,99695.88
2022-09-23T09:56:54.944Z,99693.66
2022-09-23T09:59:28.728Z,99695.41
2022-09-23T10:02:28.121Z,99696.00
2022-09-23T10:05:03.584Z,99694.25
2022-09-23T10:07:32.410Z,99698.06
2022-09-23T10:10:31.882Z,99699.56
2022-09-23T10:13:16.172Z,99699.34
2022-09-23T10:15:44.936Z,99703.53
2022-09-23T10:18:29.062Z,99700.88
2022-09-23T10:21:15.844Z,99692.66
2022-09-23T10:23:45.570Z,99699.94
2022-09-23T10:26:17.446Z,99694.47
2022-09-23T10:28:55.650Z,99690.91
2022-09-23T10:31:26.365Z,99689.94
2022-09-23T10:33:57.239Z,99696.84
2022-09-23T10:36:23.753Z,99696.06
2022-09-23T10:39:16.652Z,99694.44
2022-09-23T10:42:23.126Z,99683.78
2022-09-23T10:45:39.855Z,99698.31
2022-09-23T10:48:27.531Z,99688.88
2022-09-23T10:50:57.553Z,99686.25
2022-09-23T10:53:26.059Z,99685.88
2022-09-23T10:56:19.707Z,99683.59
2022-09-23T10:59:05.133Z,99686.31
2022-09-23T11:01:48.197Z,99685.41
2022-09-23T11:04:17.425Z,99676.72
2022-09-23T11:07:02.369Z,99672.44
2022-09-23T11:09:47.617Z,99669.50
2022-09-23T11:12:38.431Z,99665.22
2022-09-23T11:15:33.585Z,99655.47
2022-09-23T11:18:22.117Z,99660.03
2022-09-23T11:20:51.573Z,99657.69
2022-09-23T11:23:37.075Z,99644.72
2022-09-23T11:26:09.726Z,99636.28
2022-09-23T11:29:04.121Z,99643.25
2022-09-23T11:31:59.752Z,99638.88
2022-09-23T11:34:26.524Z,99631.19
2022-09-23T11:37:01.274Z,99632.00
2022-09-23T11:40:17.757Z,99628.34
2022-09-23T11:43:11.189Z,99618.06
2022-09-23T11:45:45.165Z,99608.00
2022-09-23T11:48:20.491Z,99612.09
2022-09-23T11:50:55.198Z,99609.41
2022-09-23T11:53:32.376Z,99604.84
2022-09-23T11:56:31.761Z,99603.50
2022-09-23T11:59:15.942Z,99592.41
2022-09-23T12:01:49.776Z,99595.84
2022-09-23T12:04:42.974Z,99589.38
2022-09-23T12:07:26.039Z,99593.34
2022-09-23T12:10:06.683Z,99584.59
2022-09-23T12:13:19.258Z,99583.56
2022-09-23T12:16:03.301Z,99573.59
2022-09-23T12:18:39.294Z,99577.69
2022-09-23T12:21:51.912Z,99578.19
2022-09-23T12:24:34.865Z,99572.84
2022-09-23T12:27:08.067Z,99569.19
2022-09-23T12:29:36.441Z,99571.00
2022-09-23T12:32:09.977Z,99562.31
2022-09-23T12:34:41.874Z,99576.16
2022-09-23T12:37:08.445Z,99561.09
2022-09-23T12:39:38.590Z,99561.03
2022-09-23T12:42:12.253Z,99550.09
2022-09-23T12:44:42.077Z,99559.81
2022-09-23T12:47:14.374Z,99560.44
2022-09-23T12:49:44.354Z,99567.41
2022-09-23T12:52:10.814Z,99561.06
2022-09-23T12:54:41.512Z,99561.19
2022-09-23T12:57:31.940Z,99557.44
2022-09-23T13:00:18.664Z,99554.19
2022-09-23T13:03:08.127Z,99554.22
2022-09-23T13:06:05.988Z,99538.31
2022-09-23T13:08:36.710Z,99536.06
2022-09-23T13:11:07.161Z,99532.69
2022-09-23T13:13:43.443Z,99532.94
2022-09-23T13:16:25.196Z,99529.03
2022-09-23T13:18:57.151Z,99528.25
2022-09-23T13:21:42.184Z,99515.88
2022-09-23T13:24:18.583Z,99520.56
2022-09-23T13:26:48.273Z,99514.31
2022-09-23T13:29:23.992Z,99508.97
2022-09-23T13:31:50.848Z,99513.88
2022-09-23T13:34:21.456Z,99507.94
2022-09-23T13:36:49.032Z,99506.59
2022-09-23T13:39:26.911Z,99496.56
2022-09-23T13:42:00.890Z,99500.69
2022-09-23T13:44:28.565Z,99502.22
2022-09-23T13:47:00.550Z,99495.44
2022-09-23T13:49:29.859Z,99494.88
2022-09-23T13:51:57.314Z,99494.94
2022-09-23T13:54:48.851Z,99500.19
2022-09-23T13:57:27.468Z,99481.06
2022-09-23T13:59:54.079Z,99492.75
2022-09-23T14:02:20.735Z,99479.75
2022-09-23T14:04:47.418Z,99476.75
2022-09-23T14:07:16.831Z,99489.72
2022-09-23T14:09:48.307Z,99477.00
2022-09-23T14:12:21.837Z,99486.59
2022-09-23T14:14:51.664Z,99480.16
2022-09-23T14:17:22.832Z,99476.19
2022-09-23T14:19:50.379Z,99466.88
2022-09-23T14:22:28.169Z,99471.00
2022-09-23T14:24:56.365Z,99464.94
2022-09-23T14:27:33.789Z,99458.94
2022-09-23T14:30:02.733Z,99457.94
2022-09-23T14:32:30.413Z,99455.19
2022-09-23T14:35:00.125Z,99451.16
2022-09-23T14:37:57.102Z,99451.25
2022-09-23T14:40:28.731Z,99443.16
2022-09-23T14:43:16.522Z,99448.09
2022-09-23T14:45:50.518Z,99442.94
2022-09-23T14:48:22.327Z,99434.97
2022-09-23T14:51:16.199Z,99434.44
2022-09-23T14:53:48.735Z,99425.72
2022-09-23T14:56:20.455Z,99425.66
2022-09-23T14:59:00.714Z,99428.13
2022-09-23T15:01:33.289Z,99425.00
2022-09-23T15:04:14.882Z,99431.66
2022-09-23T15:06:47.702Z,99434.31
2022-09-23T15:09:23.565Z,99423.25
2022-09-23T15:11:59.208Z,99426.03
2022-09-23T15:14:37.649Z,99418.31
2022-09-23T15:17:13.424Z,99418.59
2022-09-23T15:19:40.500Z,99419.44
2022-09-23T15:22:08.894Z,99414.69
2022-09-23T15:24:45.558Z,99408.25
2022-09-23T15:27:22.501Z,99407.47
2022-09-23T15:29:50.123Z,99408.34
2022-09-23T15:32:16.853Z,99410.38
2022-09-23T15:34:43.351Z,99401.16
2022-09-23T15:37:12.514Z,99395.63
2022-09-23T15:39:39.039Z,99401.28
2022-09-23T15:42:07.380Z,99403.66
2022-09-23T15:44:36.317Z,99393.41
2022-09-23T15:47:03.002Z,99389.16
2022-09-23T15:49:34.541Z,99390.44
2022-09-23T15:52:02.090Z,99389.69
2022-09-23T15:54:29.505Z,99401.22
2022-09-23T15:56:58.636Z,99392.16
2022-09-23T15:59:25.157Z,99385.41
2022-09-23T16:01:52.835Z,99377.06
2022-09-23T16:04:19.609Z,99385.91
2022-09-23T16:06:48.091Z,99383.56
2022-09-23T16:09:15.694Z,99385.97
2022-09-23T16:11:48.384Z,99381.63
2022-09-23T16:14:16.881Z,99383.22
2022-09-23T16:16:46.140Z,99383.94
2022-09-23T16:19:12.773Z,99385.50
2022-09-23T16:21:40.923Z,99386.28
2022-09-23T16:24:18.644Z,99393.75
2022-09-23T16:26:47.148Z,99393.19
2022-09-23T16:29:13.778Z,99395.13
2022-09-23T16:31:40.528Z,99391.81
2022-09-23T16:34:07.207Z,99396.38
2022-09-23T16:36:43.037Z,99388.38
2022-09-23T16:39:12.590Z,99391.09
2022-09-23T16:41:40.147Z,99389.91
2022-09-23T16:44:09.349Z,99383.91
2022-09-23T16:46:36.423Z,99372.38
2022-09-23T16:49:03.233Z,99383.00
2022-09-23T16:51:37.951Z,99371.47
2022-09-23T16:54:11.412Z,99380.13
2022-09-23T16:56:43.922Z,99375.28
2022-09-23T16:59:12.319Z,99383.53
2022-09-23T17:01:57.450Z,99385.47
2022-09-23T17:04:24.027Z,99382.72
2022-09-23T17:06:52.528Z,99382.31
2022-09-23T17:09:24.856Z,99378.69
2022-09-23T17:12:35.090Z,99379.81
2022-09-23T17:15:06.207Z,99378.53
2022-09-23T17:17:37.524Z,99382.84
2022-09-23T17:20:05.871Z,99382.00
2022-09-23T17:22:33.796Z,99381.28
2022-09-23T17:25:02.906Z,99380.81
2022-09-23T17:27:29.933Z,99381.13
2022-09-23T17:29:56.421Z,99387.16
2022-09-23T17:32:22.983Z,99381.13
2022-09-23T17:34:49.501Z,99381.03
2022-09-23T17:37:16.044Z,99387.38
2022-09-23T17:39:42.637Z,99384.91
2022-09-23T17:42:09.659Z,99376.06
2022-09-23T17:44:36.299Z,99385.50
2022-09-23T17:47:03.759Z,99379.09
2022-09-23T17:49:35.310Z,99375.19
2022-09-23T17:52:05.669Z,99381.47
2022-09-23T17:54:32.688Z,99386.22
2022-09-23T17:56:59.867Z,99386.97
2022-09-23T17:59:26.751Z,99385.81
2022-09-23T18:01:53.992Z,99384.97
2022-09-23T18:04:20.983Z,99387.69
2022-09-23T18:06:47.678Z,99397.88
2022-09-23T18:09:14.799Z,99399.00
2022-09-23T18:11:44.261Z,99398.94
2022-09-23T18:14:16.461Z,99393.75
2022-09-23T18:16:45.592Z,99392.91
2022-09-23T18:19:14.447Z,99393.31
2022-09-23T18:21:45.502Z,99397.63
2022-09-23T18:27:00.013Z,99385.59
2022-09-23T18:29:26.722Z,99381.50
2022-09-23T18:31:53.420Z,99376.72
2022-09-23T18:34:20.414Z,99380.22
2022-09-23T18:36:47.090Z,99375.91
2022-09-23T18:39:13.657Z,99385.00
2022-09-23T18:41:40.960Z,99383.06
2022-09-23T18:44:07.562Z,99384.22
2022-09-23T18:46:34.153Z,99385.00
2022-09-23T18:49:18.999Z,99385.38
2022-09-23T18:51:50.968Z,99387.66
2022-09-23T18:54:18.379Z,99388.41
2022-09-23T18:56:46.336Z,99394.72
2022-09-23T18:59:16.642Z,99393.91
2022-09-23T19:01:45.742Z,99387.13
2022-09-23T19:04:14.154Z,99389.41
2022-09-23T19:06:41.111Z,99382.72
2022-09-23T19:09:07.735Z,99383.50
2022-09-23T19:11:38.083Z,99378.78
2022-09-23T19:14:07.385Z,99383.09
2022-09-23T19:16:36.029Z,99381.44
2022-09-23T19:19:04.616Z,99381.44
2022-09-23T19:21:32.512Z,99379.69
2022-09-23T19:24:03.418Z,99376.09
2022-09-23T19:26:33.625Z,99376.91
2022-09-23T19:29:02.178Z,99379.16
2022-09-23T19:31:33.279Z,99374.00
2022-09-23T19:34:10.070Z,99373.56
2022-09-23T19:36:38.880Z,99375.50
2022-09-23T19:39:08.803Z,99373.03
2022-09-23T19:41:35.519Z,99371.41
2022-09-23T19:44:03.526Z,99374.88
2022-09-23T19:46:33.893Z,99365.81
2022-09-23T19:49:00.836Z,99371.75
2022-09-23T19:51:28.337Z,99369.28
2022-09-23T19:53:54.930Z,99366.53
2022-09-23T19:56:21.793Z,99366.84
2022-09-23T19:58:54.299Z,99363.63
2022-09-23T20:01:21.613Z,99369.97
2022-09-23T20:03:48.983Z,99362.13
2022-09-23T20:06:16.845Z,99364.09
2022-09-23T20:08:44.520Z,99362.94
2022-09-23T20:11:14.306Z,99372.22
2022-09-23T20:13:43.945Z,99365.00
2022-09-23T20:16:13.361Z,99366.81
2022-09-23T20:18:40.705Z,99356.09
2022-09-23T20:21:09.742Z,99359.22
2022-09-23T20:23:36.405Z,99360.25
2022-09-23T20:26:23.128Z,99356.94
2022-09-23T20:28:50.222Z,99357.66
2022-09-23T20:31:18.519Z,99345.91
2022-09-23T20:33:46.165Z,99342.16
2022-09-23T20:36:13.461Z,99341.69
2022-09-23T20:38:40.570Z,99343.09
2022-09-23T20:41:09.364Z,99342.31
2022-09-23T20:43:35.848Z,99345.13
2022-09-23T20:46:04.115Z,99339.09
2022-09-23T20:48:31.150Z,99342.16
2022-09-23T20:51:05.248Z,99336.63
2022-09-23T20:53:32.614Z,99336.22
2022-09-23T20:55:59.742Z,99335.50
2022-09-23T20:58:29.188Z,99330.78
2022-09-23T21:01:12.368Z,99330.69
2022-09-23T21:03:41.628Z,99328.63
2022-09-23T21:06:09.218Z,99328.09
2022-09-23T21:08:37.272Z,99320.66
2022-09-23T21:11:06.424Z,99324.50
2022-09-23T21:13:33.562Z,99325.56
2022-09-23T21:16:04.933Z,99328.69
2022-09-23T21:18:32.110Z,99327.97
2022-09-23T21:21:00.125Z,99324.78
2022-09-23T21:23:29.858Z,99326.66
2022-09-23T21:26:13.907Z,99317.13
2022-09-23T21:28:41.762Z,99317.91
2022-09-23T21:31:22.472Z,99316.81
2022-09-23T21:33:57.095Z,99310.00
2022-09-23T21:36:24.680Z,99312.03
2022-09-23T21:38:52.517Z,99306.16
2022-09-23T21:41:19.776Z,99301.44
2022-09-23T21:43:46.421Z,99306.66
2022-09-23T21:46:14.908Z,99307.09
2022-09-23T21:48:42.862Z,99303.19
2022-09-23T21:51:17.522Z,99297.91
2022-09-23T21:53:44.679Z,99305.78
2022-09-23T21:56:15.695Z,99306.88
2022-09-23T21:58:45.791Z,99295.78
2022-09-23T22:01:17.043Z,99296.22
2022-09-23T22:03:44.959Z,99294.66
2022-09-23T22:06:21.501Z,99291.75
2022-09-23T22:08:59.010Z,99286.72
2022-09-23T22:11:46.658Z,99285.78
2022-09-23T22:14:14.376Z,99294.66
2022-09-23T22:16:41.838Z,99292.19
2022-09-23T22:19:09.819Z,99290.22
2022-09-23T22:21:38.136Z,99288.13
2022-09-23T22:24:07.463Z,99288.25
2022-09-23T22:26:44.484Z,99289.69
2022-09-23T22:29:34.358Z,99280.28
2022-09-23T22:32:20.702Z,99286.22
2022-09-23T22:34:51.453Z,99286.59
2022-09-23T22:37:28.727Z,99280.44
2022-09-23T22:39:55.254Z,99288.25
2022-09-23T22:42:22.457Z,99279.63
2022-09-23T22:44:50.136Z,99278.03
2022-09-23T22:47:18.026Z,99285.34
2022-09-23T22:49:46.338Z,99279.97
2022-09-23T22:52:14.122Z,99280.28
2022-09-23T22:54:40.667Z,99280.91
2022-09-23T22:57:09.054Z,99285.00
2022-09-23T22:59:37.403Z,99281.09
2022-09-23T23:02:05.049Z,99270.47
2022-09-23T23:04:31.798Z,99277.03
2022-09-23T23:06:58.896Z,99273.47
2022-09-23T23:09:25.957Z,99273.13
2022-09-23T23:11:52.474Z,99263.38
2022-09-23T23:14:19.401Z,99253.53
2022-09-23T23:16:46.718Z,99251.56
2022-09-23T23:19:17.250Z,99252.72
2022-09-23T23:21:45.442Z,99262.06
2022-09-23T23:24:20.426Z,99260.81
2022-09-23T23:26:47.602Z,99250.25
2022-09-23T23:29:15.984Z,99251.84
2022-09-23T23:31:43.296Z,99250.97
2022-09-23T23:34:16.270Z,99243.88
2022-09-23T23:36:43.917Z,99253.13
2022-09-23T23:39:11.086Z,99252.59
2022-09-23T23:41:39.517Z,99250.50
2022-09-23T23:44:07.739Z,99244.41
2022-09-23T23:46:34.638Z,99246.09
2022-09-23T23:49:01.237Z,99245.28
2022-09-23T23:51:28.223Z,99250.25
2022-09-23T23:53:55.203Z,99249.53
2022-09-23T23:56:24.471Z,99258.25
2022-09-23T23:58:55.577Z,99249.66
